Latest Weather Observations for Lake Macquarie - Cooranbong

IDN60801

Issued at 8:35 pm EST Monday 21 April 2014 (issued every 30 minutes, with the page automatically refreshed every 10 minutes)

About weather observations | Map of weather stations | Latest weather observations for NSW | Other Formats
Station Details ID: 061412 Name: LAKE MACQUARIE AWS Lat: -33.09 Lon: 151.46 Height: 6.0 m
Data from the previous 72 hours. | See also: Recent months at Lake Macquarie - Cooranbong
Date/Time
EST
Temp
°C
App
Temp
°C
Dew
Point
Rel
Hum
%
Delta-T
°C
Wind Press
QNH
hPa
Press
MSL
hPa
Rain
since 9 am
mm
Dir
 
Spd
km/h
Gust
km/h
Spd
kts
Gust
kts
21/08:30pm 12.1 12.4 11.0 93 0.6 N 0 0 0 0 1020.6 - 0.0
21/08:00pm 12.7 13.1 11.3 91 0.7 N 0 0 0 0 1020.5 1020.5 0.0
21/07:30pm 13.2 13.8 11.8 91 0.7 CALM 0 0 0 0 1020.5 - 0.0
21/07:00pm 13.5 13.9 11.4 87 1.1 CALM 0 0 0 0 1020.3 1020.3 0.0
21/06:30pm 13.8 14.2 11.3 85 1.3 CALM 0 0 0 0 1019.8 - 0.0
21/06:00pm 15.3 15.8 11.7 79 1.9 CALM 0 2 0 1 1019.5 1019.5 0.0
21/05:30pm 16.9 17.2 11.0 68 3.2 CALM 0 0 0 0 1019.3 - 0.0
21/05:00pm 19.6 19.5 10.9 57 4.7 ESE 2 6 1 3 1019.0 1019.0 0.0
21/04:30pm 20.7 19.8 10.5 52 5.5 ESE 6 9 3 5 1018.8 - 0.0
21/04:00pm 21.5 20.3 9.4 46 6.5 SE 6 11 3 6 1018.7 1018.7 0.0
21/03:30pm 22.6 21.6 8.7 41 7.4 SSW 4 7 2 4 1018.5 - 0.0
21/03:00pm 23.6 23.1 7.7 36 8.3 CALM 0 6 0 3 1018.4 1018.4 0.0
21/02:30pm 23.7 22.9 8.2 37 8.2 N 2 6 1 3 1018.4 - 0.0
21/02:00pm 22.8 21.4 7.4 37 8.0 NNW 4 7 2 4 1018.6 1018.6 0.0
21/01:30pm 22.3 20.6 7.7 39 7.6 SSW 6 11 3 6 1018.9 - 0.0
21/01:00pm 21.6 20.9 8.5 43 6.9 SSE 2 4 1 2 1019.2 1019.2 0.0
21/12:30pm 21.9 20.8 10.1 47 6.4 N 6 13 3 7 1019.5 - 0.0
21/12:00pm 21.5 20.3 9.4 46 6.5 N 6 13 3 7 1020.0 1020.0 0.0
21/11:30am 20.9 20.0 9.2 47 6.2 ESE 4 7 2 4 1020.6 - 0.0
21/11:00am 20.5 19.3 9.4 49 5.9 N 6 9 3 5 1020.8 1020.8 0.0
21/10:30am 19.6 19.1 9.5 52 5.4 NW 2 6 1 3 1021.0 - 0.0
21/10:00am 18.7 18.3 9.8 56 4.7 SSE 2 6 1 3 1021.2 1021.2 0.0
21/09:30am 17.9 17.5 9.8 59 4.3 ENE 2 7 1 4 1021.3 - 0.0
21/09:00am 16.9 17.5 11.8 72 2.8 CALM 0 0 0 0 1021.5 1021.5 0.0
21/08:30am 14.5 15.3 12.7 89 1.0 CALM 0 0 0 0 1021.5 - 0.0
21/08:00am 11.5 11.8 11.0 97 0.3 CALM 0 0 0 0 1021.2 1021.2 0.0
21/07:30am 9.6 9.5 9.3 98 0.1 CALM 0 0 0 0 1020.9 - 0.0
21/07:00am 7.4 6.7 7.0 97 0.2 CALM 0 0 0 0 1020.6 1020.6 0.0
21/06:30am 7.2 6.4 6.6 96 0.3 CALM 0 0 0 0 1020.2 - 0.0
21/06:00am 7.6 6.9 7.0 96 0.3 NNW 0 0 0 0 1019.9 1019.9 0.0
21/05:30am 7.8 7.2 7.2 96 0.3 CALM 0 0 0 0 1019.5 - 0.0
21/05:00am 8.0 7.4 7.4 96 0.3 CALM 0 0 0 0 1019.2 1019.2 0.0
21/04:30am 8.0 7.4 7.4 96 0.3 CALM 0 0 0 0 1018.9 - 0.0
21/04:00am 8.0 7.4 7.4 96 0.3 CALM 0 0 0 0 1018.5 1018.5 0.0
21/03:30am 8.3 7.8 7.7 96 0.3 CALM 0 0 0 0 1018.4 - 0.0
21/03:00am 8.5 8.0 7.9 96 0.3 CALM 0 0 0 0 1018.3 1018.3 0.0
21/02:30am 8.6 8.1 8.0 96 0.3 CALM 0 0 0 0 1018.2 - 0.0
21/02:00am 9.1 8.8 8.5 96 0.3 CALM 0 0 0 0 1018.2 1018.2 0.0
21/01:30am 9.1 8.7 8.3 95 0.4 CALM 0 0 0 0 1018.3 - 0.0
21/01:00am 9.2 8.8 8.4 95 0.4 CALM 0 0 0 0 1018.3 1018.3 0.0
21/12:30am 9.4 9.1 8.6 95 0.4 CALM 0 0 0 0 1018.1 - 0.0
21/12:00am 9.6 9.3 8.8 95 0.4 NNW 0 0 0 0 1017.8 1017.8 0.0
 
Date/Time
EST
Temp
°C
App
Temp
°C
Dew
Point
Rel
Hum
%
Delta-T
°C
Wind Press
QNH
hPa
Press
MSL
hPa
Rain
since 9 am
mm
Dir
 
Spd
km/h
Gust
km/h
Spd
kts
Gust
kts
20/11:30pm 10.1 10.0 9.3 95 0.4 CALM 0 0 0 0 1017.9 - 0.0
20/11:00pm 10.1 10.0 9.3 95 0.4 CALM 0 0 0 0 1017.7 1017.7 0.0
20/10:30pm 10.7 10.7 9.9 95 0.4 CALM 0 0 0 0 1017.8 - 0.0
20/10:00pm 11.1 11.2 10.2 94 0.5 CALM 0 0 0 0 1017.8 1017.8 0.0
20/09:30pm 11.4 11.5 10.1 92 0.7 CALM 0 0 0 0 1017.4 - 0.0
20/09:00pm 11.9 12.2 10.8 93 0.6 CALM 0 0 0 0 1017.2 1017.2 0.0
20/08:30pm 12.3 12.6 10.9 91 0.7 CALM 0 0 0 0 1017.1 - 0.0
20/08:00pm 12.9 13.2 11.0 88 1.0 CALM 0 0 0 0 1016.9 1016.9 0.0
20/07:30pm 13.2 13.6 11.3 88 1.0 CALM 0 4 0 2 1016.6 - 0.0
20/07:00pm 14.2 14.7 11.7 85 1.3 CALM 0 0 0 0 1016.4 1016.4 0.0
20/06:30pm 14.6 15.0 11.4 81 1.7 CALM 0 0 0 0 1016.1 - 0.0
20/06:00pm 16.0 16.6 11.8 76 2.3 CALM 0 0 0 0 1015.8 1015.8 0.0
20/05:30pm 17.6 18.0 11.2 66 3.5 CALM 0 0 0 0 1015.5 - 0.0
20/05:00pm 20.4 20.3 9.6 50 5.8 CALM 0 2 0 1 1015.1 1015.1 0.0
20/04:30pm 22.5 21.6 9.3 43 7.1 NNE 4 7 2 4 1014.9 - 0.0
20/04:00pm 23.4 21.7 8.3 38 8.0 NNE 7 11 4 6 1014.8 1014.8 0.0
20/03:30pm 24.1 23.0 8.5 37 8.3 N 4 11 2 6 1014.8 - 0.0
20/03:00pm 22.8 23.0 14.6 60 4.8 SE 7 13 4 7 1014.8 1014.8 0.0
20/02:30pm 22.8 22.4 14.1 58 5.1 E 9 19 5 10 1014.8 - 0.0
20/02:00pm 22.7 22.1 14.5 60 4.8 E 11 19 6 10 1014.8 1014.8 0.0
20/01:30pm 22.6 22.2 14.2 59 4.9 E 9 15 5 8 1015.1 - 0.0
20/01:00pm 21.6 21.0 13.5 60 4.7 E 9 13 5 7 1015.4 1015.4 0.0
20/12:30pm 21.5 20.9 13.4 60 4.7 ESE 9 13 5 7 1015.9 - 0.0
20/12:00pm 22.1 21.9 13.7 59 4.9 ESE 7 13 4 7 1016.3 1016.3 0.0
20/11:30am 22.0 21.9 13.4 58 5.0 NE 6 9 3 5 1017.0 - 0.0
20/11:00am 21.8 21.7 13.4 59 4.8 ESE 6 9 3 5 1017.5 1017.5 0.0
20/10:30am 20.8 20.9 12.8 60 4.5 ESE 4 9 2 5 1017.9 - 0.0
20/10:00am 20.1 20.4 12.3 61 4.4 E 2 4 1 2 1018.3 1018.3 0.0
20/09:30am 19.6 20.4 12.4 63 4.0 CALM 0 4 0 2 1018.2 - 0.0
20/09:00am 18.4 19.7 14.1 76 2.5 CALM 0 0 0 0 1018.3 1018.3 0.0
20/08:30am 15.6 16.7 13.4 87 1.2 CALM 0 0 0 0 1018.3 - 0.0
20/08:00am 13.9 14.9 13.1 95 0.4 CALM 0 0 0 0 1018.2 1018.2 0.0
20/07:30am 12.5 13.1 12.0 97 0.3 CALM 0 0 0 0 1017.8 - 0.0
20/07:00am 10.8 10.9 10.2 96 0.3 CALM 0 0 0 0 1017.4 1017.4 0.0
20/06:30am 10.6 10.7 10.0 96 0.3 CALM 0 0 0 0 1017.5 - 0.0
20/06:00am 10.4 10.4 9.8 96 0.3 CALM 0 0 0 0 1017.3 1017.3 0.0
20/05:30am 10.5 10.5 9.7 95 0.4 CALM 0 0 0 0 1017.0 - 0.0
20/05:00am 10.8 10.9 10.0 95 0.4 CALM 0 0 0 0 1016.8 1016.8 0.0
20/04:30am 11.3 11.5 10.5 95 0.4 CALM 0 0 0 0 1016.8 - 0.0
20/04:00am 11.7 12.0 10.9 95 0.4 CALM 0 0 0 0 1016.9 1016.9 0.0
20/03:30am 11.8 12.1 11.0 95 0.4 CALM 0 0 0 0 1016.9 - 0.0
20/03:00am 11.7 12.0 10.8 94 0.5 CALM 0 0 0 0 1017.0 1017.0 0.0
20/02:30am 11.7 12.0 10.8 94 0.5 CALM 0 0 0 0 1017.0 - 0.0
20/02:00am 11.6 11.8 10.5 93 0.6 CALM 0 0 0 0 1017.1 1017.1 0.0
20/01:30am 12.3 12.7 11.2 93 0.6 CALM 0 0 0 0 1017.3 - 0.0
20/01:00am 12.8 13.3 11.5 92 0.7 CALM 0 0 0 0 1017.5 1017.5 0.0
20/12:30am 12.9 13.4 11.6 92 0.7 CALM 0 0 0 0 1017.8 - 0.0
20/12:00am 13.1 13.6 11.7 91 0.7 CALM 0 0 0 0 1018.0 1018.0 0.0
 
Date/Time
EST
Temp
°C
App
Temp
°C
Dew
Point
Rel
Hum
%
Delta-T
°C
Wind Press
QNH
hPa
Press
MSL
hPa
Rain
since 9 am
mm
Dir
 
Spd
km/h
Gust
km/h
Spd
kts
Gust
kts
19/11:30pm 13.5 14.0 11.7 89 1.0 CALM 0 0 0 0 1017.9 - 0.0
19/11:00pm 13.7 14.3 11.9 89 1.0 CALM 0 0 0 0 1018.0 1018.0 0.0
19/10:30pm 13.7 14.3 11.8 88 1.0 CALM 0 0 0 0 1017.9 - 0.0
19/10:00pm 14.1 14.7 12.0 87 1.1 CALM 0 0 0 0 1018.0 1018.0 0.0
19/09:30pm 14.6 15.5 12.8 89 1.0 CALM 0 0 0 0 1018.1 - 0.0
19/09:00pm 14.1 14.9 12.5 90 0.9 CALM 0 0 0 0 1018.1 1018.1 0.0
19/08:30pm 14.2 14.9 12.1 87 1.1 CALM 0 0 0 0 1017.9 - 0.0
19/08:00pm 14.9 15.4 11.7 81 1.7 CALM 0 0 0 0 1017.5 1017.5 0.0
19/07:30pm 16.8 17.3 11.5 71 2.9 CALM 0 2 0 1 1017.1 - 0.0
19/07:00pm 17.4 17.6 11.7 69 3.1 WSW 2 6 1 3 1016.8 1016.8 0.0
19/06:30pm 17.8 18.0 12.0 69 3.2 SW 2 6 1 3 1016.4 - 0.0
19/06:00pm 18.1 18.3 11.9 67 3.4 SSW 2 4 1 2 1016.0 1016.0 0.0
19/05:30pm 18.6 18.8 11.9 65 3.7 S 2 7 1 4 1015.6 - 0.0
19/05:00pm 18.8 19.0 11.9 64 3.8 SSE 2 6 1 3 1015.2 1015.2 0.0
19/04:30pm 19.3 18.6 12.1 63 4.0 S 7 13 4 7 1014.8 - 0.0
19/04:00pm 19.8 19.2 12.3 62 4.2 SSE 7 11 4 6 1014.7 1014.7 0.0
19/03:30pm 20.1 18.6 11.8 59 4.6 SE 11 17 6 9 1014.5 - 0.0
19/03:00pm 20.6 19.5 12.1 58 4.8 SE 9 17 5 9 1014.4 1014.4 0.0
19/02:30pm 20.2 18.8 12.2 60 4.5 ESE 11 17 6 9 1014.5 - 0.0
19/02:00pm 21.7 21.4 12.8 57 5.1 SSE 6 11 3 6 1014.3 1014.3 0.0
19/01:30pm 21.9 21.7 13.5 59 4.8 SE 7 15 4 8 1014.4 - 0.0
19/01:00pm 22.4 22.3 13.2 56 5.3 ESE 6 20 3 11 1014.5 1014.5 0.0
19/12:30pm 21.7 21.1 10.5 49 6.1 S 4 6 2 3 1015.0 - 0.0
19/12:00pm 22.6 22.3 12.8 54 5.6 SSW 6 7 3 4 1015.4 1015.4 0.0
19/11:30am 22.2 21.9 11.3 50 6.1 SW 4 9 2 5 1015.7 - 0.0
19/11:00am 21.5 20.7 11.2 52 5.7 W 6 11 3 6 1016.2 1016.2 0.0
19/10:30am 21.7 22.0 12.3 55 5.3 NW 2 6 1 3 1016.6 - 0.0
19/10:00am 21.2 21.1 12.1 56 5.1 SW 4 7 2 4 1016.7 1016.7 0.0
19/09:30am 20.2 19.9 12.7 62 4.2 SW 6 9 3 5 1016.8 - 0.0
19/09:00am 19.5 19.7 13.0 66 3.7 SW 4 7 2 4 1016.8 1016.8 0.2
19/08:30am 18.4 19.9 14.7 79 2.1 CALM 0 6 0 3 1016.7 - 0.2
19/08:00am 14.4 15.4 13.1 92 0.7 CALM 0 6 0 3 1016.6 1016.6 0.2
19/07:30am 11.9 12.3 11.4 97 0.3 CALM 0 0 0 0 1016.4 - 0.2
19/07:00am 10.3 10.3 9.7 96 0.3 CALM 0 0 0 0 1016.1 1016.1 0.2
19/06:30am 9.7 9.5 8.9 95 0.4 CALM 0 0 0 0 1015.8 - 0.2
19/06:00am 9.8 9.6 9.0 95 0.4 CALM 0 0 0 0 1015.5 1015.5 0.2
19/05:30am 10.1 10.0 9.5 96 0.3 CALM 0 0 0 0 1015.4 - 0.2
19/05:00am 10.1 10.0 9.3 95 0.4 CALM 0 0 0 0 1015.2 1015.2 0.2
19/04:30am 10.1 10.0 9.3 95 0.4 CALM 0 0 0 0 1015.0 - 0.2
19/04:00am 10.4 10.3 9.6 95 0.4 CALM 0 0 0 0 1014.8 1014.8 0.2
19/03:30am 10.5 10.5 9.7 95 0.4 CALM 0 0 0 0 1014.7 - 0.2
19/03:00am 10.9 11.0 10.0 94 0.5 CALM 0 0 0 0 1014.6 1014.6 0.2
19/02:30am 10.9 11.0 10.0 94 0.5 CALM 0 0 0 0 1014.4 - 0.2
19/02:00am 11.3 11.5 10.4 94 0.5 CALM 0 0 0 0 1014.4 1014.4 0.2
19/01:30am 11.5 11.7 10.6 94 0.5 CALM 0 0 0 0 1014.3 - 0.2
19/01:00am 11.6 11.7 10.3 92 0.7 CALM 0 0 0 0 1014.3 1014.3 0.2
19/12:30am 11.6 11.7 10.3 92 0.7 CALM 0 0 0 0 1014.3 - 0.2
19/12:00am 12.2 12.1 10.8 91 0.7 N 2 4 1 2 1014.2 1014.2 0.2
 
Date/Time
EST
Temp
°C
App
Temp
°C
Dew
Point
Rel
Hum
%
Delta-T
°C
Wind Press
QNH
hPa
Press
MSL
hPa
Rain
since 9 am
mm
Dir
 
Spd
km/h
Gust
km/h
Spd
kts
Gust
kts
18/11:30pm 12.6 12.6 11.2 91 0.7 N 2 6 1 3 1014.3 - 0.2
18/11:00pm 12.8 13.2 11.4 91 0.7 CALM 0 0 0 0 1014.8 1014.8 0.2
18/10:30pm 12.8 12.9 11.5 92 0.7 N 2 4 1 2 1014.7 - 0.2
18/10:00pm 13.2 13.4 11.9 92 0.7 SE 2 4 1 2 1015.0 1015.0 0.2
18/09:30pm 13.2 13.8 11.9 92 0.7 CALM 0 0 0 0 1014.9 - 0.2
18/09:00pm 13.3 13.8 11.7 90 0.9 CALM 0 0 0 0 1014.8 1014.8 0.2

Other Formats:

Comma delimited format used in spreadsheet applications
http://www.bom.gov.au/fwo/IDN60801/IDN60801.95767.axf

JavaScript Object Notation format (JSON) in row-major order
http://www.bom.gov.au/fwo/IDN60801/IDN60801.95767.json